Time;durP1;ratioP1;P1;durP2;ratioP2;P2;SDS_P1;SDS_P2;PMS_P1;PMS_P2;Temp;Humidity;BMP_temperature;BMP_pressure;BME280_temperature;BME280_humidity;BME280_pressure;Samples;Min_cycle;Max_cycle;Signal;HPM_P1;HPM_P2
2022/08/31 00:04:40;;;;;;;6.70;1.90;;;;;;;19.97;nan;101650.13;6243963;23;20415;-86
2022/08/31 00:07:09;;;;;;;4.40;1.53;;;;;;;20.02;nan;101658.56;6170145;23;20407;-86
2022/08/31 00:09:56;;;;;;;6.70;1.27;;;;;;;19.92;nan;101651.88;6219868;23;20411;-86
2022/08/31 00:12:27;;;;;;;7.63;1.73;;;;;;;19.93;nan;101662.75;6195149;23;20407;-85
2022/08/31 00:18:56;;;;;;;6.40;1.93;;;;;;;19.91;nan;101648.25;6255940;22;20520;-86
2022/08/31 00:21:27;;;;;;;3.33;1.27;;;;;;;19.82;nan;101646.88;6223962;22;20445;-86
2022/08/31 00:23:55;;;;;;;2.87;1.50;;;;;;;19.75;nan;101640.59;6198971;22;20509;-86
2022/08/31 00:26:26;;;;;;;7.60;1.30;;;;;;;19.83;nan;101642.16;6225049;22;20421;-86
2022/08/31 00:28:53;;;;;;;3.60;1.40;;;;;;;19.98;nan;101634.31;6225444;22;20540;-86
2022/08/31 00:31:22;;;;;;;8.10;1.57;;;;;;;19.82;nan;101621.09;6200372;22;20559;-86
2022/08/31 00:33:54;;;;;;;4.53;1.20;;;;;;;19.82;nan;101621.91;6224654;22;20493;-86
2022/08/31 00:36:22;;;;;;;4.87;1.50;;;;;;;19.80;nan;101634.34;6249620;22;20421;-86
2022/08/31 00:38:52;;;;;;;5.47;1.87;;;;;;;19.78;nan;101634.56;6224869;22;20429;-86
2022/08/31 00:41:21;;;;;;;6.80;1.50;;;;;;;19.81;nan;101636.03;6250398;22;20581;-85
2022/08/31 00:43:50;;;;;;;7.77;2.00;;;;;;;19.86;nan;101627.84;6225079;22;20412;-86
2022/08/31 00:46:23;;;;;;;3.43;1.57;;;;;;;19.76;nan;101622.84;6225095;22;20410;-86
2022/08/31 00:49:07;;;;;;;3.50;1.50;;;;;;;19.68;nan;101620.38;6225654;22;20456;-86
2022/08/31 00:51:47;;;;;;;8.33;1.57;;;;;;;19.73;nan;101603.06;6224949;22;20773;-86
2022/08/31 00:57:58;;;;;;;5.67;2.13;;;;;;;19.72;nan;101618.00;6276787;22;20354;-85
2022/08/31 01:00:28;;;;;;;13.10;2.07;;;;;;;19.64;nan;101602.50;6225328;22;20467;-86
2022/08/31 01:02:56;;;;;;;10.07;1.77;;;;;;;19.67;nan;101629.78;6224399;22;21041;-86
2022/08/31 01:05:24;;;;;;;3.93;1.20;;;;;;;19.67;nan;101615.91;6200301;22;20406;-85
2022/08/31 01:07:52;;;;;;;4.60;1.60;;;;;;;19.61;nan;101605.78;6227195;22;20406;-85
2022/08/31 01:10:22;;;;;;;4.63;1.70;;;;;;;19.69;nan;101613.75;6227315;22;20540;-85
2022/08/31 01:12:52;;;;;;;3.63;1.07;;;;;;;19.63;nan;101611.91;6226898;22;20732;-85
2022/08/31 01:15:20;;;;;;;8.97;1.60;;;;;;;19.56;nan;101608.38;6252391;22;20530;-86
2022/08/31 01:17:51;;;;;;;10.50;1.93;;;;;;;19.55;nan;101610.31;6202662;22;20409;-85
2022/08/31 01:20:21;;;;;;;10.73;1.70;;;;;;;19.56;nan;101617.56;6226735;22;20939;-85
2022/08/31 01:23:13;;;;;;;5.00;1.63;;;;;;;19.62;nan;101618.56;6226695;22;20655;-86
2022/08/31 01:25:44;;;;;;;5.93;1.50;;;;;;;19.52;nan;101599.69;6227668;22;20405;-86
2022/08/31 01:28:12;;;;;;;10.03;1.73;;;;;;;19.48;nan;101589.25;6226713;22;20432;-86
2022/08/31 01:30:40;;;;;;;7.50;2.00;;;;;;;19.57;nan;101594.28;6202077;22;20414;-86
2022/08/31 01:37:20;;;;;;;8.53;1.80;;;;;;;19.50;nan;101610.16;6278608;22;20488;-86
2022/08/31 01:39:55;;;;;;;5.03;1.50;;;;;;;19.38;nan;101598.13;6253377;22;20484;-85
2022/08/31 01:42:23;;;;;;;5.87;2.10;;;;;;;19.37;nan;101592.81;6226667;22;20436;-86
2022/08/31 02:07:56;;;;;;;4.60;1.67;;;;;;;19.10;nan;101593.09;6278270;22;20350;-86
2022/08/31 02:14:10;;;;;;;7.10;1.90;;;;;;;19.15;nan;101601.56;6278289;22;20357;-85
2022/08/31 02:16:38;;;;;;;11.17;2.40;;;;;;;19.11;nan;101589.25;6277707;22;20416;-85
2022/08/31 02:19:12;;;;;;;5.27;1.40;;;;;;;19.14;nan;101599.88;6225392;22;20433;-86
2022/08/31 02:25:20;;;;;;;9.33;2.30;;;;;;;18.99;nan;101577.25;6278088;22;20428;-85
2022/08/31 02:27:53;;;;;;;8.27;1.80;;;;;;;19.08;nan;101588.84;6251391;22;20456;-86
2022/08/31 02:30:21;;;;;;;6.63;1.70;;;;;;;19.16;nan;101619.03;6251261;22;20501;-85
2022/08/31 02:32:55;;;;;;;10.40;2.27;;;;;;;19.09;nan;101599.72;6227513;22;20485;-85
2022/08/31 02:55:21;;;;;;;11.47;2.33;;;;;;;18.99;nan;101602.16;6277892;22;20365;-85
2022/08/31 02:57:50;;;;;;;10.23;1.70;;;;;;;18.92;nan;101606.91;6250709;22;20401;-85
2022/08/31 03:04:11;;;;;;;7.13;1.97;;;;;;;18.85;nan;101600.63;6277714;22;20361;-85
2022/08/31 03:14:35;;;;;;;4.03;1.50;;;;;;;18.76;nan;101597.28;6277701;22;20694;-86
2022/08/31 03:28:56;;;;;;;14.30;1.93;;;;;;;18.69;nan;101615.84;6277266;22;20405;-86
2022/08/31 03:31:23;;;;;;;6.67;2.10;;;;;;;18.66;nan;101609.94;6225461;22;20405;-86
2022/08/31 03:33:53;;;;;;;7.73;2.23;;;;;;;18.64;nan;101601.88;6200682;22;20401;-86
2022/08/31 03:40:12;;;;;;;7.80;1.90;;;;;;;18.58;nan;101611.88;6277418;22;20745;-86
2022/08/31 03:42:40;;;;;;;7.33;1.63;;;;;;;18.53;nan;101608.94;6225895;22;20537;-85
2022/08/31 03:45:11;;;;;;;7.47;1.93;;;;;;;18.51;nan;101608.31;6225574;22;20405;-86
2022/08/31 03:47:40;;;;;;;5.27;1.80;;;;;;;18.49;nan;101609.59;6200658;22;20413;-86
2022/08/31 03:50:11;;;;;;;4.03;1.50;;;;;;;18.47;nan;101606.25;6202706;22;20466;-85
2022/08/31 03:52:38;;;;;;;9.37;1.77;;;;;;;18.47;nan;101606.25;6200829;22;20406;-85
2022/08/31 03:55:09;;;;;;;4.00;1.93;;;;;;;18.39;nan;101610.13;6225614;22;20489;-85
2022/08/31 03:57:37;;;;;;;4.67;1.63;;;;;;;18.29;nan;101590.38;6225552;22;20413;-86
2022/08/31 04:00:11;;;;;;;4.50;1.80;;;;;;;18.27;nan;101596.16;6225577;22;20418;-86
2022/08/31 04:02:39;;;;;;;8.17;2.13;;;;;;;18.26;nan;101593.63;6250785;22;20525;-86
2022/08/31 04:12:51;;;;;;;4.90;1.60;;;;;;;18.18;nan;101610.47;6277204;22;20372;-86
2022/08/31 04:15:19;;;;;;;4.57;2.40;;;;;;;18.19;nan;101617.72;6225345;22;20493;-85
2022/08/31 04:17:47;;;;;;;5.83;1.90;;;;;;;18.21;nan;101616.41;6224402;22;20406;-85
2022/08/31 04:20:15;;;;;;;4.97;1.57;;;;;;;18.16;nan;101613.47;6250025;22;20410;-86
2022/08/31 04:22:42;;;;;;;8.97;2.07;;;;;;;18.19;nan;101612.19;6199928;22;20521;-86
2022/08/31 04:25:12;;;;;;;8.40;2.13;;;;;;;18.13;nan;101608.38;6225486;22;20423;-86
2022/08/31 04:31:34;;;;;;;2.67;1.27;;;;;;;18.11;nan;101615.19;6277102;22;20353;-85
2022/08/31 04:34:02;;;;;;;7.30;1.77;;;;;;;18.21;nan;101612.81;6225004;22;20906;-85
2022/08/31 04:40:21;;;;;;;9.20;1.70;;;;;;;18.07;nan;101602.91;6276576;22;20449;-86
2022/08/31 04:47:32;;;;;;;6.20;1.97;;;;;;;18.10;nan;101630.09;6276903;22;20835;-86
2022/08/31 04:49:59;;;;;;;4.13;1.47;;;;;;;17.92;nan;101617.84;6276448;22;20409;-86
2022/08/31 04:56:24;;;;;;;5.80;1.87;;;;;;;17.79;nan;101606.88;6276790;22;20357;-86
2022/08/31 04:58:54;;;;;;;4.40;2.30;;;;;;;17.81;nan;101614.94;6225596;22;20401;-86
2022/08/31 05:01:23;;;;;;;7.40;1.67;;;;;;;17.76;nan;101604.53;6224975;22;20408;-87
2022/08/31 05:03:52;;;;;;;5.47;1.63;;;;;;;17.77;nan;101617.31;6199676;22;20445;-86
2022/08/31 05:10:41;;;;;;;8.23;1.40;;;;;;;17.88;nan;101638.75;6277135;22;20353;-86
2022/08/31 05:13:09;;;;;;;10.03;1.90;;;;;;;17.78;nan;101615.38;6249875;22;20492;-85
2022/08/31 05:15:41;;;;;;;2.70;1.37;;;;;;;17.74;nan;101612.19;6199942;22;20896;-85
2022/08/31 05:18:12;;;;;;;3.87;1.87;;;;;;;17.73;nan;101613.28;6200179;22;20420;-86
2022/08/31 05:20:40;;;;;;;3.77;1.90;;;;;;;17.74;nan;101614.97;6199732;22;20417;-86
2022/08/31 05:23:07;;;;;;;4.70;1.67;;;;;;;17.82;nan;101628.56;6199485;22;20935;-85
2022/08/31 05:25:38;;;;;;;8.53;1.80;;;;;;;17.72;nan;101614.34;6200376;22;20797;-86
2022/08/31 05:28:09;;;;;;;8.60;1.80;;;;;;;17.72;nan;101619.88;6224720;22;20413;-86
2022/08/31 05:30:43;;;;;;;6.33;1.53;;;;;;;17.81;nan;101637.06;6224594;22;20414;-86
2022/08/31 05:37:44;;;;;;;5.13;1.70;;;;;;;17.79;nan;101634.53;6276618;22;20848;-86
2022/08/31 05:40:12;;;;;;;7.70;2.10;;;;;;;17.64;nan;101616.47;6276372;22;20919;-85
2022/08/31 05:46:40;;;;;;;2.60;1.40;;;;;;;17.72;nan;101611.56;6276617;22;20350;-86
2022/08/31 06:00:31;;;;;;;5.10;1.40;;;;;;;17.76;nan;101623.91;6278443;22;20393;-85
2022/08/31 06:03:02;;;;;;;6.50;2.07;;;;;;;17.90;nan;101653.19;6201687;22;21002;-85
2022/08/31 06:05:29;;;;;;;6.23;1.80;;;;;;;17.79;nan;101623.47;6226218;22;20490;-86
2022/08/31 06:08:00;;;;;;;6.90;1.77;;;;;;;17.82;nan;101638.78;6251100;22;20410;-85
2022/08/31 06:14:16;;;;;;;6.07;1.23;;;;;;;17.82;nan;101625.78;6278331;22;20348;-86
2022/08/31 06:16:54;;;;;;;13.13;1.50;;;;;;;17.87;nan;101637.06;6231188;22;20410;-86
2022/08/31 06:19:28;;;;;;;8.30;1.97;;;;;;;17.80;nan;101639.00;6203124;22;20409;-86
2022/08/31 06:26:29;;;;;;;2.13;1.10;;;;;;;17.98;nan;101656.78;6280085;22;20405;-86
2022/08/31 06:29:06;;;;;;;4.83;1.33;;;;;;;17.95;nan;101638.69;6222228;23;20482;-85
2022/08/31 06:31:46;;;;;;;5.87;1.53;;;;;;;17.94;nan;101637.84;6171562;23;20407;-86
2022/08/31 06:34:17;;;;;;;5.60;1.40;;;;;;;18.04;nan;101658.66;6173818;23;20418;-86
2022/08/31 06:36:47;;;;;;;3.83;2.17;;;;;;;17.97;nan;101657.84;6195346;23;20465;-86
2022/08/31 06:39:16;;;;;;;4.77;1.63;;;;;;;17.91;nan;101656.78;6196703;23;20533;-85
2022/08/31 06:41:44;;;;;;;8.00;1.20;;;;;;;18.01;nan;101659.09;6208754;23;20473;-86
2022/08/31 06:48:02;;;;;;;4.77;1.47;;;;;;;18.06;nan;101656.53;6247348;23;20382;-86
2022/08/31 06:54:12;;;;;;;3.03;1.00;;;;;;;18.12;nan;101666.69;6247219;23;20466;-85
2022/08/31 06:57:01;;;;;;;4.47;1.60;;;;;;;18.15;nan;101652.41;6224449;23;20968;-86
2022/08/31 07:03:52;;;;;;;3.77;1.40;;;;;;;18.41;nan;101677.19;6246680;23;20959;-85
2022/08/31 07:06:49;;;;;;;10.00;1.53;;;;;;;18.42;nan;101667.81;6246834;23;20406;-86
2022/08/31 07:09:17;;;;;;;6.67;1.60;;;;;;;18.51;nan;101663.69;6225926;23;20501;-86
2022/08/31 07:11:50;;;;;;;6.10;1.40;;;;;;;18.69;nan;101675.94;6195948;23;20495;-85
2022/08/31 07:14:23;;;;;;;4.17;1.03;;;;;;;18.70;nan;101677.63;6172054;23;20803;-86
2022/08/31 07:16:53;;;;;;;6.70;1.70;;;;;;;18.82;nan;101692.47;6221389;23;20534;-86
2022/08/31 07:19:21;;;;;;;4.47;1.27;;;;;;;18.87;nan;101689.84;6195738;23;20559;-86
2022/08/31 07:21:51;;;;;;;6.17;1.47;;;;;;;18.96;nan;101692.13;6219935;23;20406;-86
2022/08/31 07:24:22;;;;;;;4.80;1.40;;;;;;;19.09;nan;101696.69;6195378;23;20449;-85
2022/08/31 07:30:56;;;;;;;12.70;1.60;;;;;;;19.29;nan;101699.28;6275770;22;20902;-86
2022/08/31 07:33:24;;;;;;;10.93;1.63;;;;;;;19.30;nan;101690.75;6225345;22;20484;-86
2022/08/31 07:35:54;;;;;;;10.60;1.50;;;;;;;19.49;nan;101701.84;6277280;22;20544;-88
2022/08/31 07:46:02;;;;;;;8.03;1.00;;;;;;;19.82;nan;101694.03;6277336;22;20423;-89
2022/08/31 07:48:34;;;;;;;5.83;1.13;;;;;;;19.87;nan;101683.09;6250431;22;20417;-89
2022/08/31 07:51:22;;;;;;;3.63;1.10;;;;;;;20.06;nan;101686.69;6229936;22;20543;-87
2022/08/31 07:53:55;;;;;;;5.00;0.90;;;;;;;20.20;nan;101701.28;6249614;22;20487;-88
2022/08/31 08:00:31;;;;;;;4.30;0.90;;;;;;;20.28;nan;101712.03;6277244;22;20396;-87
2022/08/31 08:03:05;;;;;;;5.73;1.73;;;;;;;20.33;nan;101717.75;6250713;22;20445;-88
2022/08/31 08:05:37;;;;;;;4.70;0.90;;;;;;;20.42;nan;101713.56;6228316;22;20524;-89
2022/08/31 08:08:35;;;;;;;;;;;;;;;;;;;;;
2022/08/31 08:16:18;;;;;;;4.00;1.30;;;;;;;20.73;nan;101722.75;6277057;22;20453;-88
2022/08/31 08:18:58;;;;;;;2.33;1.10;;;;;;;20.76;nan;101700.91;6251496;22;20410;-89
2022/08/31 08:25:18;;;;;;;9.73;1.27;;;;;;;21.11;nan;101714.84;6276836;22;20688;-88
2022/08/31 08:36:27;;;;;;;1.77;0.70;;;;;;;21.53;nan;101725.91;6293728;22;21128;-88
2022/08/31 08:42:52;;;;;;;3.53;0.93;;;;;;;21.87;nan;101718.59;6277027;22;20417;-91
2022/08/31 08:45:22;;;;;;;5.17;0.90;;;;;;;22.07;nan;101729.38;6201114;22;20418;-91
2022/08/31 08:48:10;;;;;;;2.40;0.87;;;;;;;22.04;nan;101712.06;6209415;22;20398;-93
2022/08/31 08:51:03;;;;;;;4.87;1.10;;;;;;;22.19;nan;101735.75;6202427;22;20417;-91
2022/08/31 08:53:48;;;;;;;3.20;0.90;;;;;;;22.15;nan;101715.03;6276765;22;20481;-87
2022/08/31 08:57:06;;;;;;;2.00;0.97;;;;;;;22.35;nan;101735.78;6200779;22;20480;-88
2022/08/31 09:03:43;;;;;;;4.70;0.70;;;;;;;22.57;nan;101715.59;6182521;23;20443;-87
2022/08/31 09:06:57;;;;;;;1.73;0.80;;;;;;;22.69;nan;101736.75;6135112;23;20737;-88
2022/08/31 09:10:19;;;;;;;2.20;0.70;;;;;;;22.77;nan;101737.44;6065423;23;20396;-94
2022/08/31 09:13:09;;;;;;;2.07;0.63;;;;;;;22.84;nan;101738.16;6022099;23;20419;-94
2022/08/31 09:19:18;;;;;;;2.03;0.80;;;;;;;23.15;nan;101729.22;6066508;23;20495;-93
2022/08/31 19:49:13;;;;;;;7.27;1.70;;;;;;;21.19;nan;101463.38;6271868;22;20736;-88
2022/08/31 19:51:43;;;;;;;5.83;1.80;;;;;;;21.24;nan;101483.84;6225908;22;20418;-88
2022/08/31 19:54:11;;;;;;;11.83;2.27;;;;;;;21.19;nan;101483.69;6226145;22;20485;-87
2022/08/31 19:56:43;;;;;;;9.73;1.83;;;;;;;21.15;nan;101488.09;6202550;22;20536;-88
2022/08/31 19:59:19;;;;;;;7.03;1.80;;;;;;;21.27;nan;101527.84;6226113;22;20880;-88
2022/08/31 20:01:51;;;;;;;3.73;1.60;;;;;;;21.16;nan;101509.25;6225935;22;20405;-88
2022/08/31 20:04:25;;;;;;;8.33;1.97;;;;;;;21.17;nan;101521.19;6201467;22;20437;-88
2022/08/31 20:06:54;;;;;;;5.50;1.53;;;;;;;21.07;nan;101520.97;6249899;22;20410;-88
2022/08/31 20:09:26;;;;;;;5.13;1.70;;;;;;;21.07;nan;101526.53;6224164;22;20477;-89
2022/08/31 20:11:58;;;;;;;6.87;2.10;;;;;;;21.00;nan;101518.31;6225577;22;20394;-89
2022/08/31 20:14:26;;;;;;;8.40;2.63;;;;;;;20.99;nan;101536.91;6250644;22;20410;-88
2022/08/31 20:16:54;;;;;;;5.87;1.70;;;;;;;20.99;nan;101525.81;6250011;22;20448;-89
2022/08/31 20:19:27;;;;;;;8.50;2.47;;;;;;;21.02;nan;101541.16;6200421;22;20413;-88
2022/08/31 20:21:59;;;;;;;7.50;1.67;;;;;;;20.90;nan;101523.66;6201463;22;20402;-88
2022/08/31 20:24:27;;;;;;;4.90;1.83;;;;;;;20.92;nan;101522.31;6200999;22;20438;-88
2022/08/31 20:26:58;;;;;;;8.23;1.70;;;;;;;21.05;nan;101543.44;6225985;22;20451;-88
2022/08/31 20:29:29;;;;;;;5.17;1.20;;;;;;;21.01;nan;101539.47;6225580;22;20417;-88
2022/08/31 20:31:59;;;;;;;5.73;1.77;;;;;;;20.93;nan;101539.84;6225919;22;20484;-88
2022/08/31 20:34:27;;;;;;;10.33;2.00;;;;;;;20.97;nan;101538.28;6200030;22;20414;-91
2022/08/31 20:36:57;;;;;;;6.13;1.53;;;;;;;20.99;nan;101538.84;6200217;22;20728;-91
2022/08/31 20:39:30;;;;;;;8.23;1.80;;;;;;;20.86;nan;101526.06;6226809;22;20543;-89
2022/08/31 20:42:01;;;;;;;7.10;1.97;;;;;;;20.81;nan;101527.88;6199918;22;20397;-89
2022/08/31 20:44:32;;;;;;;9.30;1.93;;;;;;;20.78;nan;101522.81;6224562;22;20753;-88
2022/08/31 20:49:53;;;;;;;5.33;1.60;;;;;;;20.75;nan;101531.66;6241494;22;20429;-90
2022/08/31 20:52:24;;;;;;;4.13;1.60;;;;;;;20.74;nan;101533.56;6256488;22;20867;-87
2022/08/31 20:54:54;;;;;;;8.10;2.13;;;;;;;20.67;nan;101522.56;6255746;22;20409;-88
2022/08/31 20:57:28;;;;;;;10.80;3.53;;;;;;;20.72;nan;101534.91;6233665;22;20479;-88
2022/08/31 20:59:59;;;;;;;9.47;2.27;;;;;;;20.67;nan;101543.94;6230863;22;20416;-88
2022/08/31 21:02:30;;;;;;;7.50;2.07;;;;;;;20.72;nan;101532.97;6282141;22;20398;-89
2022/08/31 21:05:01;;;;;;;10.70;2.50;;;;;;;20.64;nan;101534.16;6255354;22;20523;-86
2022/08/31 21:07:49;;;;;;;7.03;1.50;;;;;;;20.63;nan;101540.81;6285172;22;20401;-88
2022/08/31 21:10:20;;;;;;;9.20;2.10;;;;;;;20.51;nan;101528.84;6231015;22;20928;-89
2022/08/31 21:13:10;;;;;;;13.83;2.20;;;;;;;20.53;nan;101531.41;6241814;22;20404;-89
2022/08/31 21:15:40;;;;;;;6.80;1.80;;;;;;;20.57;nan;101536.25;6231252;22;20492;-89
2022/08/31 21:18:16;;;;;;;7.20;1.73;;;;;;;20.53;nan;101537.78;6254467;22;20930;-89
2022/08/31 21:20:45;;;;;;;4.93;1.60;;;;;;;20.49;nan;101531.03;6307687;22;20393;-90
2022/08/31 21:23:12;;;;;;;7.17;1.67;;;;;;;20.53;nan;101521.13;6280995;22;20487;-89
2022/08/31 21:25:45;;;;;;;8.80;2.17;;;;;;;20.51;nan;101528.00;6232213;22;20499;-90
2022/08/31 21:28:15;;;;;;;8.70;2.03;;;;;;;20.47;nan;101522.09;6257236;22;20542;-89
2022/08/31 21:30:45;;;;;;;9.57;1.97;;;;;;;20.48;nan;101509.88;6232883;22;20408;-90
2022/08/31 21:33:13;;;;;;;12.27;2.50;;;;;;;20.46;nan;101523.16;6232921;22;20409;-89
2022/08/31 21:35:41;;;;;;;5.13;1.90;;;;;;;20.46;nan;101514.00;6256873;22;20504;-89
2022/08/31 21:38:11;;;;;;;11.50;2.20;;;;;;;20.48;nan;101512.66;6256840;22;20546;-89
2022/08/31 21:40:49;;;;;;;5.23;1.67;;;;;;;20.39;nan;101491.06;6259103;22;20487;-90
2022/08/31 21:43:20;;;;;;;11.67;2.10;;;;;;;20.40;nan;101499.13;6232469;22;20553;-89
2022/08/31 21:45:48;;;;;;;8.40;1.80;;;;;;;20.37;nan;101491.31;6257387;22;20448;-90
2022/08/31 21:48:21;;;;;;;21.10;2.47;;;;;;;20.27;nan;101502.09;6235419;22;20479;-90
2022/08/31 21:50:54;;;;;;;7.73;1.80;;;;;;;20.23;nan;101509.22;6258071;22;20433;-89
2022/08/31 21:53:25;;;;;;;7.70;2.03;;;;;;;20.12;nan;101502.56;6281777;22;20727;-90
2022/08/31 21:55:57;;;;;;;7.03;2.00;;;;;;;20.26;nan;101517.06;6257403;22;20408;-90
2022/08/31 21:58:25;;;;;;;7.60;2.20;;;;;;;20.23;nan;101514.78;6256986;22;20412;-89
2022/08/31 22:00:58;;;;;;;8.67;2.00;;;;;;;20.18;nan;101507.19;6165412;23;20407;-89
2022/08/31 22:03:34;;;;;;;5.07;1.80;;;;;;;20.10;nan;101515.84;6214595;23;20915;-90
2022/08/31 22:06:11;;;;;;;7.53;1.80;;;;;;;20.14;nan;101516.22;6101764;23;20545;-89
2022/08/31 22:08:40;;;;;;;7.47;2.00;;;;;;;20.08;nan;101503.28;6125340;23;20414;-89
2022/08/31 22:11:16;;;;;;;6.90;1.97;;;;;;;19.99;nan;101492.53;6101906;23;20494;-89
2022/08/31 22:13:46;;;;;;;6.43;2.03;;;;;;;20.08;nan;101489.41;6077255;23;20414;-90
2022/08/31 22:16:15;;;;;;;12.03;2.83;;;;;;;20.07;nan;101498.81;6100740;23;20468;-90
2022/08/31 22:18:49;;;;;;;8.77;2.27;;;;;;;20.04;nan;101488.19;6124532;23;20438;-90
2022/08/31 22:21:33;;;;;;;5.77;1.80;;;;;;;20.02;nan;101488.41;6142491;23;20529;-90
2022/08/31 22:24:03;;;;;;;14.30;2.77;;;;;;;19.98;nan;101479.75;6111648;23;20436;-90
2022/08/31 22:26:34;;;;;;;9.27;2.03;;;;;;;19.99;nan;101489.78;6111563;23;20520;-90
2022/08/31 22:29:05;;;;;;;10.90;2.53;;;;;;;20.07;nan;101507.13;6136210;23;20737;-90
2022/08/31 22:31:35;;;;;;;5.20;2.03;;;;;;;19.96;nan;101484.69;6240160;22;20412;-90
2022/08/31 22:34:27;;;;;;;5.73;2.27;;;;;;;19.94;nan;101492.41;6232419;22;20405;-90
2022/08/31 22:36:58;;;;;;;5.53;2.17;;;;;;;19.97;nan;101489.16;6259183;22;20410;-90
2022/08/31 22:39:27;;;;;;;8.87;2.37;;;;;;;19.87;nan;101472.22;6282174;22;20405;-89
2022/08/31 22:41:55;;;;;;;7.47;2.03;;;;;;;19.97;nan;101493.88;6255897;22;20530;-90
2022/08/31 22:44:25;;;;;;;12.80;2.60;;;;;;;19.95;nan;101485.78;6036909;23;20530;-89
2022/08/31 22:46:55;;;;;;;8.37;2.00;;;;;;;19.93;nan;101482.38;6167291;23;20420;-89
2022/08/31 22:49:23;;;;;;;11.20;3.50;;;;;;;19.98;nan;101481.69;6173881;22;20450;-89
2022/08/31 22:51:51;;;;;;;10.17;2.70;;;;;;;19.95;nan;101466.34;6169987;23;20399;-90
2022/08/31 22:54:19;;;;;;;12.57;2.70;;;;;;;19.91;nan;101475.38;6171005;23;20414;-90
2022/08/31 22:56:48;;;;;;;8.10;2.40;;;;;;;19.88;nan;101473.91;6170556;23;20545;-88
2022/08/31 22:59:24;;;;;;;9.57;2.80;;;;;;;19.91;nan;101480.94;6170948;23;20482;-89
2022/08/31 23:01:54;;;;;;;7.80;2.00;;;;;;;19.88;nan;101470.28;6196872;23;20414;-90
2022/08/31 23:04:29;;;;;;;13.53;2.53;;;;;;;19.87;nan;101466.69;6195695;23;21042;-93
2022/08/31 23:07:00;;;;;;;9.07;2.30;;;;;;;19.83;nan;101465.47;6195141;23;20418;-93
2022/08/31 23:09:29;;;;;;;6.70;2.70;;;;;;;19.82;nan;101447.13;6212255;22;20409;-90
2022/08/31 23:11:59;;;;;;;7.20;2.20;;;;;;;19.73;nan;101447.72;6231848;22;20420;-90
2022/08/31 23:14:31;;;;;;;9.10;2.23;;;;;;;19.78;nan;101434.81;6233097;22;20419;-91
2022/08/31 23:17:01;;;;;;;10.53;2.50;;;;;;;19.74;nan;101436.38;6231393;22;20899;-92
2022/08/31 23:19:32;;;;;;;21.47;2.67;;;;;;;19.79;nan;101438.44;6256518;22;20466;-91
2022/08/31 23:22:00;;;;;;;9.53;2.80;;;;;;;19.69;nan;101425.16;6231502;22;20505;-92
2022/08/31 23:24:35;;;;;;;11.80;2.40;;;;;;;19.73;nan;101448.56;6231194;22;20447;-91
2022/08/31 23:27:06;;;;;;;15.90;2.53;;;;;;;19.70;nan;101454.56;6256624;22;20419;-92
2022/08/31 23:29:44;;;;;;;13.80;2.70;;;;;;;19.65;nan;101444.19;6232121;22;20872;-91
2022/08/31 23:32:12;;;;;;;11.60;2.60;;;;;;;19.74;nan;101454.94;6233237;22;20405;-91
2022/08/31 23:34:41;;;;;;;9.00;2.80;;;;;;;19.66;nan;101440.31;6256968;22;20518;-91
2022/08/31 23:37:11;;;;;;;11.47;2.70;;;;;;;19.70;nan;101454.56;6231211;22;20740;-91
2022/08/31 23:39:42;;;;;;;5.80;2.03;;;;;;;19.74;nan;101439.16;6256425;22;20898;-92
2022/08/31 23:42:17;;;;;;;7.43;2.20;;;;;;;19.76;nan;101436.16;6256556;22;20423;-91
2022/08/31 23:44:54;;;;;;;7.80;2.10;;;;;;;19.72;nan;101435.78;6231274;22;20441;-91
2022/08/31 23:47:24;;;;;;;7.40;2.67;;;;;;;19.67;nan;101421.75;6256702;22;20404;-91
2022/08/31 23:49:52;;;;;;;8.33;2.93;;;;;;;19.76;nan;101425.91;6232039;22;20528;-92
2022/08/31 23:52:26;;;;;;;10.73;2.37;;;;;;;19.72;nan;101407.19;6231692;22;20412;-92
2022/08/31 23:54:59;;;;;;;9.83;2.50;;;;;;;19.70;nan;101420.44;6257492;22;20897;-92
2022/08/31 23:57:36;;;;;;;7.70;2.10;;;;;;;19.61;nan;101417.19;6259605;22;20435;-91
